createdAt,value
2023-09-14T00:00:11.452Z,81.19
2023-09-14T00:02:40.230Z,80.58
2023-09-14T00:05:10.400Z,80.71
2023-09-14T00:07:39.169Z,81.52
2023-09-14T00:10:09.911Z,81.23
2023-09-14T00:12:38.835Z,81.46
2023-09-14T00:15:08.774Z,81.35
2023-09-14T00:17:39.141Z,81.32
2023-09-14T00:20:11.217Z,81.08
2023-09-14T00:22:40.228Z,81.50
2023-09-14T00:25:09.594Z,81.03
2023-09-14T00:27:38.630Z,81.43
2023-09-14T00:30:09.639Z,80.88
2023-09-14T00:32:41.454Z,80.88
2023-09-14T00:35:11.921Z,81.00
2023-09-14T00:37:41.400Z,81.37
2023-09-14T00:40:13.542Z,80.86
2023-09-14T00:42:44.149Z,80.87
2023-09-14T00:45:15.546Z,81.36
2023-09-14T00:47:49.367Z,80.71
2023-09-14T00:50:19.112Z,80.08
2023-09-14T00:52:54.334Z,79.70
2023-09-14T00:55:24.787Z,79.33
2023-09-14T00:57:54.416Z,79.59
2023-09-14T01:00:23.846Z,79.38
2023-09-14T01:02:58.254Z,80.27
2023-09-14T01:05:32.439Z,80.67
2023-09-14T01:08:02.250Z,81.12
2023-09-14T01:10:31.121Z,80.64
2023-09-14T01:13:00.445Z,80.91
2023-09-14T01:15:35.890Z,80.28
2023-09-14T01:18:16.683Z,80.32
2023-09-14T01:21:32.115Z,80.22
2023-09-14T01:24:20.144Z,79.79
2023-09-14T01:26:51.509Z,79.74
2023-09-14T01:29:20.677Z,79.40
2023-09-14T01:31:49.586Z,79.79
2023-09-14T01:34:19.779Z,79.34
2023-09-14T01:36:58.226Z,79.37
2023-09-14T01:39:30.036Z,80.02
2023-09-14T01:42:00.663Z,79.74
2023-09-14T01:44:32.336Z,79.07
2023-09-14T01:47:03.350Z,79.09
2023-09-14T01:49:32.363Z,79.60
2023-09-14T01:52:01.315Z,79.10
2023-09-14T01:54:30.083Z,79.56
2023-09-14T01:57:00.214Z,78.57
2023-09-14T01:59:28.952Z,78.66
2023-09-14T02:01:57.998Z,79.21
2023-09-14T02:04:26.835Z,80.22
2023-09-14T02:06:55.734Z,80.47
2023-09-14T02:09:26.548Z,80.26
2023-09-14T02:11:55.232Z,80.55
2023-09-14T02:14:25.932Z,80.08
2023-09-14T02:16:54.784Z,80.52
2023-09-14T02:19:23.673Z,80.27
2023-09-14T02:21:53.102Z,79.98
2023-09-14T02:24:21.885Z,79.71
2023-09-14T02:26:52.742Z,79.46
2023-09-14T02:29:21.481Z,79.85
2023-09-14T02:31:51.614Z,79.63
2023-09-14T02:34:20.599Z,80.01
2023-09-14T02:36:49.538Z,79.38
2023-09-14T02:39:18.296Z,79.22
2023-09-14T02:41:47.079Z,79.02
2023-09-14T02:44:15.873Z,79.38
2023-09-14T02:46:46.918Z,79.81
2023-09-14T02:49:17.135Z,79.57
2023-09-14T02:51:46.014Z,79.54
2023-09-14T02:54:15.100Z,80.10
2023-09-14T02:56:43.850Z,79.70
2023-09-14T02:59:13.213Z,79.67
2023-09-14T03:01:41.950Z,79.41
2023-09-14T03:04:11.017Z,79.20
2023-09-14T03:06:41.315Z,79.86
2023-09-14T03:09:10.089Z,80.71
2023-09-14T03:11:38.892Z,80.00
2023-09-14T03:14:08.153Z,79.92
2023-09-14T03:16:37.266Z,80.71
2023-09-14T03:19:06.397Z,80.94
2023-09-14T03:21:35.406Z,80.44
2023-09-14T03:24:06.383Z,80.76
2023-09-14T03:26:35.325Z,80.99
2023-09-14T03:29:04.282Z,81.01
2023-09-14T03:31:33.211Z,80.82
2023-09-14T03:34:04.077Z,81.23
2023-09-14T03:36:33.782Z,80.68
2023-09-14T03:39:02.615Z,79.75
2023-09-14T03:41:37.980Z,79.37
2023-09-14T03:44:07.780Z,79.55
2023-09-14T03:46:36.798Z,79.31
2023-09-14T03:49:08.233Z,80.58
2023-09-14T03:51:37.543Z,80.64
2023-09-14T03:54:09.454Z,79.72
2023-09-14T03:56:41.619Z,80.25
2023-09-14T03:59:10.480Z,79.72
2023-09-14T04:01:39.379Z,80.65
2023-09-14T04:04:08.830Z,80.44
2023-09-14T04:06:37.787Z,79.38
2023-09-14T04:09:10.395Z,79.31
2023-09-14T04:11:40.928Z,79.46
2023-09-14T04:14:09.908Z,79.78
2023-09-14T04:16:39.178Z,79.42
2023-09-14T04:19:08.093Z,78.73
2023-09-14T04:24:08.553Z,79.44
2023-09-14T04:26:39.706Z,79.72
2023-09-14T04:29:10.018Z,79.55
2023-09-14T04:31:38.937Z,79.52
2023-09-14T04:34:09.214Z,79.29
2023-09-14T04:36:39.393Z,79.29
2023-09-14T04:39:09.641Z,78.77
2023-09-14T04:41:40.451Z,79.27
2023-09-14T04:44:09.537Z,79.64
2023-09-14T04:46:39.859Z,78.97
2023-09-14T04:49:09.009Z,78.48
2023-09-14T04:51:38.287Z,78.60
2023-09-14T04:54:07.773Z,77.63
2023-09-14T04:56:36.743Z,78.28
2023-09-14T04:59:07.120Z,77.50
2023-09-14T05:01:36.426Z,77.67
2023-09-14T05:04:05.978Z,77.12
2023-09-14T05:06:35.252Z,76.67
2023-09-14T05:09:04.335Z,77.06
2023-09-14T05:11:33.761Z,77.24
2023-09-14T05:14:03.137Z,77.19
2023-09-14T05:16:33.346Z,77.35
2023-09-14T05:19:05.375Z,77.25
2023-09-14T05:21:35.683Z,77.20
2023-09-14T05:24:04.550Z,78.25
2023-09-14T05:26:33.684Z,77.68
2023-09-14T05:29:02.626Z,77.59
2023-09-14T05:31:33.009Z,77.39
2023-09-14T05:34:02.077Z,77.65
2023-09-14T05:36:30.894Z,77.75
2023-09-14T05:38:59.703Z,77.65
2023-09-14T05:41:29.198Z,78.23
2023-09-14T05:43:58.176Z,77.83
2023-09-14T05:46:27.073Z,76.90
2023-09-14T05:48:57.366Z,77.86
2023-09-14T05:51:26.829Z,77.72
2023-09-14T05:53:55.606Z,77.79
2023-09-14T05:56:25.553Z,77.57
2023-09-14T05:58:55.160Z,78.72
2023-09-14T06:01:24.185Z,78.08
2023-09-14T06:03:53.311Z,77.93
2023-09-14T06:06:23.502Z,78.53
2023-09-14T06:08:53.315Z,78.38
2023-09-14T06:11:22.206Z,78.43
2023-09-14T06:13:51.215Z,78.19
2023-09-14T06:16:20.076Z,77.91
2023-09-14T06:18:49.176Z,78.17
2023-09-14T06:21:19.440Z,78.61
2023-09-14T06:23:49.735Z,78.67
2023-09-14T06:26:18.484Z,78.64
2023-09-14T06:28:47.667Z,78.95
2023-09-14T06:31:16.766Z,79.44
2023-09-14T06:33:45.686Z,79.19
2023-09-14T06:36:14.701Z,79.31
2023-09-14T06:38:43.465Z,78.89
2023-09-14T06:41:14.086Z,78.99
2023-09-14T06:43:44.223Z,78.91
2023-09-14T06:46:13.984Z,77.86
2023-09-14T06:48:44.195Z,78.72
2023-09-14T06:51:13.204Z,79.34
2023-09-14T06:53:42.027Z,78.19
2023-09-14T06:56:12.858Z,78.83
2023-09-14T06:58:41.723Z,77.65
2023-09-14T07:01:10.666Z,77.91
2023-09-14T07:03:39.761Z,77.84
2023-09-14T07:06:08.637Z,77.89
2023-09-14T07:08:42.082Z,78.35
2023-09-14T07:11:12.385Z,78.35
2023-09-14T07:13:41.694Z,77.84
2023-09-14T07:16:10.644Z,77.78
2023-09-14T07:18:39.435Z,78.16
2023-09-14T07:21:08.209Z,78.17
2023-09-14T07:23:36.995Z,78.63
2023-09-14T07:26:08.468Z,77.67
2023-09-14T07:28:39.312Z,78.37
2023-09-14T07:31:09.661Z,78.38
2023-09-14T07:33:38.570Z,77.96
2023-09-14T07:36:07.347Z,77.40
2023-09-14T07:38:36.147Z,77.10
2023-09-14T07:41:04.990Z,77.26
2023-09-14T07:43:33.757Z,76.95
2023-09-14T07:46:04.109Z,76.91
2023-09-14T07:48:33.314Z,76.48
2023-09-14T07:51:02.029Z,76.29
2023-09-14T07:53:30.821Z,76.14
2023-09-14T07:55:59.629Z,76.50
2023-09-14T07:58:28.679Z,76.57
2023-09-14T08:00:57.420Z,76.52
2023-09-14T08:03:29.000Z,76.97
2023-09-14T08:05:57.859Z,76.99
2023-09-14T08:08:26.624Z,76.36
2023-09-14T08:10:56.989Z,76.68
2023-09-14T08:13:25.909Z,76.74
2023-09-14T08:15:55.363Z,76.74
2023-09-14T08:18:24.219Z,77.45
2023-09-14T08:20:54.549Z,77.47
2023-09-14T08:23:23.358Z,78.06
2023-09-14T08:25:52.230Z,78.44
2023-09-14T08:28:22.491Z,77.80
2023-09-14T08:30:52.074Z,78.04
2023-09-14T08:33:21.413Z,77.60
2023-09-14T08:35:50.773Z,77.66
2023-09-14T08:38:22.812Z,78.14
2023-09-14T08:40:55.982Z,77.58
2023-09-14T08:43:25.590Z,77.14
2023-09-14T08:45:57.126Z,77.47
2023-09-14T08:48:31.096Z,78.20
2023-09-14T08:51:03.607Z,77.59
2023-09-14T08:53:34.034Z,77.13
2023-09-14T08:56:05.733Z,77.52
2023-09-14T08:58:36.453Z,76.83
2023-09-14T09:01:07.987Z,76.78
2023-09-14T09:03:37.221Z,77.14
2023-09-14T09:06:06.214Z,76.51
2023-09-14T09:08:36.843Z,76.72
2023-09-14T09:11:06.746Z,77.16
2023-09-14T09:13:37.193Z,76.79
2023-09-14T09:16:06.365Z,75.98
2023-09-14T09:18:37.142Z,75.29
2023-09-14T09:21:07.442Z,76.25
2023-09-14T09:23:37.743Z,75.63
2023-09-14T09:26:06.713Z,73.96
2023-09-14T09:28:47.957Z,74.03
2023-09-14T09:31:17.409Z,74.16
2023-09-14T09:33:50.194Z,73.76
2023-09-14T09:36:20.004Z,73.19
2023-09-14T09:38:51.754Z,72.73
2023-09-14T09:41:20.922Z,71.67
2023-09-14T09:43:53.009Z,70.95
2023-09-14T09:46:22.218Z,71.01
2023-09-14T09:48:51.856Z,71.35
2023-09-14T09:51:25.908Z,69.82
2023-09-14T09:54:07.392Z,69.22
2023-09-14T09:56:37.368Z,68.58
2023-09-14T09:59:11.115Z,67.21
2023-09-14T10:01:40.877Z,66.14
2023-09-14T10:04:13.283Z,67.25
2023-09-14T10:06:45.179Z,67.54
2023-09-14T10:09:15.453Z,66.47
2023-09-14T10:11:47.759Z,66.46
2023-09-14T10:14:20.803Z,66.48
2023-09-14T10:16:56.216Z,63.65
2023-09-14T10:19:28.382Z,64.92
2023-09-14T10:21:59.728Z,64.87
2023-09-14T10:24:30.894Z,64.84
2023-09-14T10:27:02.049Z,64.72
2023-09-14T10:29:33.930Z,63.09
2023-09-14T10:32:04.886Z,63.17
2023-09-14T10:34:38.344Z,62.34
2023-09-14T10:37:10.650Z,63.65
2023-09-14T10:39:41.448Z,62.50
2023-09-14T10:42:11.430Z,61.60
2023-09-14T10:44:40.740Z,62.40
2023-09-14T10:47:12.118Z,61.93
2023-09-14T10:49:45.706Z,60.55
2023-09-14T10:52:15.430Z,61.82
2023-09-14T10:54:45.937Z,60.93
2023-09-14T10:57:24.342Z,60.67
2023-09-14T10:59:55.293Z,60.94
2023-09-14T11:03:19.059Z,57.41
2023-09-14T11:05:50.254Z,58.03
2023-09-14T11:08:23.273Z,57.23
2023-09-14T11:11:01.104Z,57.47
2023-09-14T11:13:37.159Z,59.48
2023-09-14T11:16:19.123Z,60.40
2023-09-14T11:18:59.225Z,57.80
2023-09-14T11:21:48.176Z,59.85
2023-09-14T11:24:21.541Z,58.94
2023-09-14T11:26:54.149Z,58.21
2023-09-14T11:29:29.591Z,57.69
2023-09-14T11:32:06.916Z,57.31
2023-09-14T11:34:45.027Z,58.27
2023-09-14T11:37:20.118Z,57.66
2023-09-14T11:40:00.696Z,59.02
2023-09-14T11:43:37.477Z,57.02
2023-09-14T11:46:18.683Z,56.87
2023-09-14T11:51:26.820Z,56.31
2023-09-14T11:54:00.049Z,55.89
2023-09-14T11:56:29.449Z,55.21
2023-09-14T11:59:01.721Z,56.78
2023-09-14T12:01:34.305Z,56.21
2023-09-14T12:04:06.538Z,57.45
2023-09-14T12:06:35.717Z,57.56
2023-09-14T12:09:07.008Z,55.38
2023-09-14T12:11:44.266Z,56.36
2023-09-14T12:14:14.633Z,57.06
2023-09-14T12:16:43.737Z,57.33
2023-09-14T12:19:14.687Z,56.62
2023-09-14T12:21:44.285Z,54.46
2023-09-14T12:24:13.392Z,55.82
2023-09-14T12:26:42.308Z,58.05
2023-09-14T12:30:07.217Z,58.69
2023-09-14T12:32:37.506Z,57.31
2023-09-14T12:35:07.765Z,57.02
2023-09-14T12:37:40.149Z,56.92
2023-09-14T12:40:11.745Z,58.64
2023-09-14T12:42:43.947Z,58.83
2023-09-14T12:45:19.612Z,60.98
2023-09-14T12:47:49.823Z,59.17
2023-09-14T12:50:18.886Z,61.18
2023-09-14T12:52:50.337Z,61.57
2023-09-14T12:55:21.054Z,61.48
2023-09-14T12:57:51.913Z,61.82
2023-09-14T13:00:27.181Z,62.06
2023-09-14T13:02:58.181Z,61.02
2023-09-14T13:05:28.421Z,60.71
2023-09-14T13:08:02.518Z,62.30
2023-09-14T13:10:33.963Z,59.17
2023-09-14T13:13:09.233Z,59.95
2023-09-14T13:15:42.442Z,59.61
2023-09-14T13:18:18.643Z,59.30
2023-09-14T13:20:52.663Z,57.92
2023-09-14T13:23:22.673Z,58.32
2023-09-14T13:25:52.540Z,57.40
2023-09-14T13:28:21.454Z,57.17
2023-09-14T13:30:51.987Z,57.35
2023-09-14T13:33:21.977Z,57.37
2023-09-14T13:35:51.276Z,54.78
2023-09-14T13:38:20.143Z,56.27
2023-09-14T13:40:49.528Z,55.96
2023-09-14T13:43:18.577Z,56.63
2023-09-14T13:45:50.913Z,53.91
2023-09-14T13:48:20.710Z,53.00
2023-09-14T13:50:50.009Z,53.33
2023-09-14T13:53:19.223Z,54.13
2023-09-14T13:55:49.293Z,55.76
2023-09-14T13:58:18.311Z,55.28
2023-09-14T14:00:47.431Z,56.01
2023-09-14T14:03:18.138Z,55.59
2023-09-14T14:05:47.563Z,56.24
2023-09-14T14:08:16.622Z,58.20
2023-09-14T14:10:45.714Z,58.43
2023-09-14T14:13:14.895Z,57.93
2023-09-14T14:15:44.084Z,59.57
2023-09-14T14:18:13.008Z,58.09
2023-09-14T14:20:43.188Z,59.62
2023-09-14T14:23:12.531Z,59.62
2023-09-14T14:25:41.484Z,60.11
2023-09-14T14:28:10.382Z,59.99
2023-09-14T14:30:39.405Z,59.26
2023-09-14T14:33:08.522Z,60.60
2023-09-14T14:35:37.604Z,61.47
2023-09-14T14:38:07.916Z,61.77
2023-09-14T14:43:10.473Z,57.08
2023-09-14T14:45:39.416Z,59.65
2023-09-14T14:48:09.233Z,60.38
2023-09-14T14:50:38.068Z,58.50
2023-09-14T14:53:08.387Z,59.02
2023-09-14T14:55:37.854Z,59.46
2023-09-14T14:58:06.883Z,59.99
2023-09-14T15:00:37.734Z,60.13
2023-09-14T15:03:08.417Z,60.53
2023-09-14T15:05:38.561Z,61.38
2023-09-14T15:08:08.804Z,61.31
2023-09-14T15:10:37.774Z,62.86
2023-09-14T15:13:09.834Z,61.00
2023-09-14T15:15:38.902Z,58.66
2023-09-14T15:18:08.538Z,58.22
2023-09-14T15:20:37.367Z,58.42
2023-09-14T15:23:07.878Z,60.00
2023-09-14T15:25:36.825Z,60.63
2023-09-14T15:28:06.220Z,60.00
2023-09-14T15:30:35.019Z,60.37
2023-09-14T15:33:05.227Z,60.56
2023-09-14T15:35:34.719Z,60.44
2023-09-14T15:38:29.690Z,60.87
2023-09-14T15:41:03.753Z,60.64
2023-09-14T15:43:58.338Z,61.27
2023-09-14T15:46:27.446Z,60.64
2023-09-14T15:48:56.812Z,60.33
2023-09-14T15:51:35.024Z,61.33
2023-09-14T15:54:05.649Z,60.72
2023-09-14T15:57:17.111Z,61.67
2023-09-14T16:01:10.709Z,61.26
2023-09-14T16:03:46.348Z,61.68
2023-09-14T16:06:17.128Z,62.45
2023-09-14T16:08:46.227Z,62.71
2023-09-14T16:11:18.454Z,63.62
2023-09-14T16:13:47.528Z,64.60
2023-09-14T16:16:48.009Z,65.47
2023-09-14T16:19:17.493Z,64.19
2023-09-14T16:21:49.121Z,63.37
2023-09-14T16:24:19.395Z,62.28
2023-09-14T16:26:51.313Z,61.51
2023-09-14T16:29:20.130Z,63.13
2023-09-14T16:31:49.136Z,62.89
2023-09-14T16:34:20.127Z,64.03
2023-09-14T16:36:49.350Z,65.30
2023-09-14T16:39:18.160Z,66.27
2023-09-14T16:41:48.215Z,66.43
2023-09-14T16:44:16.905Z,67.25
2023-09-14T16:46:46.735Z,67.48
2023-09-14T16:49:25.280Z,67.70
2023-09-14T16:51:55.038Z,67.63
2023-09-14T16:54:26.262Z,67.62
2023-09-14T16:56:59.304Z,67.91
2023-09-14T16:59:29.007Z,68.05
2023-09-14T17:01:58.591Z,68.26
2023-09-14T17:04:27.493Z,68.31
2023-09-14T17:06:57.358Z,68.63
2023-09-14T17:09:26.934Z,68.00
2023-09-14T17:11:57.803Z,68.72
2023-09-14T17:14:29.069Z,68.84
2023-09-14T17:16:58.661Z,69.51
2023-09-14T17:19:29.123Z,69.29
2023-09-14T17:21:58.417Z,69.64
2023-09-14T17:24:27.489Z,70.14
2023-09-14T17:27:00.124Z,70.43
2023-09-14T17:29:30.949Z,70.22
2023-09-14T17:31:59.731Z,70.51
2023-09-14T17:34:30.042Z,70.23
2023-09-14T17:36:59.801Z,71.02
2023-09-14T17:39:29.473Z,70.94
2023-09-14T17:41:59.868Z,71.19
2023-09-14T17:44:29.204Z,71.20
2023-09-14T17:46:58.813Z,71.56
2023-09-14T17:49:29.053Z,70.47
2023-09-14T17:51:58.437Z,71.00
2023-09-14T17:54:28.101Z,71.17
2023-09-14T17:56:58.753Z,71.02
2023-09-14T17:59:27.828Z,71.01
2023-09-14T18:01:56.591Z,71.57
2023-09-14T18:04:25.400Z,71.28
2023-09-14T18:06:55.545Z,71.55
2023-09-14T18:09:24.633Z,70.71
2023-09-14T18:11:53.325Z,70.47
2023-09-14T18:14:23.386Z,70.36
2023-09-14T18:16:52.250Z,70.51
2023-09-14T18:19:22.093Z,71.19
2023-09-14T18:21:51.009Z,71.92
2023-09-14T18:24:20.032Z,71.43
2023-09-14T18:26:49.418Z,71.11
2023-09-14T18:29:19.743Z,71.13
2023-09-14T18:31:50.034Z,71.25
2023-09-14T18:34:19.962Z,70.94
2023-09-14T18:36:48.731Z,70.61
2023-09-14T18:39:19.349Z,71.02
2023-09-14T18:41:49.693Z,71.19
2023-09-14T18:44:18.829Z,71.03
2023-09-14T18:46:47.542Z,71.22
2023-09-14T18:49:18.170Z,71.04
2023-09-14T18:51:47.001Z,70.43
2023-09-14T18:54:15.842Z,70.47
2023-09-14T18:56:44.584Z,71.17
2023-09-14T18:59:32.200Z,71.59
2023-09-14T19:02:02.317Z,70.80
2023-09-14T19:04:34.252Z,70.77
2023-09-14T19:07:03.783Z,70.04
2023-09-14T19:09:33.562Z,69.79
2023-09-14T19:12:09.151Z,69.77
2023-09-14T19:14:39.168Z,70.15
2023-09-14T19:17:08.973Z,69.80
2023-09-14T19:19:44.298Z,70.38
2023-09-14T19:22:14.816Z,70.63
2023-09-14T19:24:43.559Z,70.39
2023-09-14T19:27:12.428Z,70.05
2023-09-14T19:29:41.901Z,70.49
2023-09-14T19:32:11.650Z,70.10
2023-09-14T19:34:57.949Z,70.22
2023-09-14T19:37:27.295Z,70.31
2023-09-14T19:39:56.074Z,70.46
2023-09-14T19:42:26.611Z,70.33
2023-09-14T19:44:59.583Z,70.44
2023-09-14T19:47:28.575Z,70.41
2023-09-14T19:49:58.986Z,70.34
2023-09-14T19:52:29.531Z,70.47
2023-09-14T20:03:16.393Z,71.49
2023-09-14T20:08:49.205Z,71.15
2023-09-14T20:11:18.940Z,71.36
2023-09-14T20:13:49.337Z,71.57
2023-09-14T20:16:18.327Z,71.49
2023-09-14T20:18:47.699Z,71.62
2023-09-14T20:21:17.782Z,71.65
2023-09-14T20:23:48.614Z,71.90
2023-09-14T20:26:17.471Z,71.61
2023-09-14T20:28:47.621Z,71.77
2023-09-14T20:31:16.782Z,71.51
2023-09-14T20:33:45.973Z,71.86
2023-09-14T20:36:16.860Z,71.92
2023-09-14T20:38:45.688Z,71.70
2023-09-14T20:41:18.112Z,71.49
2023-09-14T20:43:49.484Z,72.07
2023-09-14T20:46:22.977Z,72.13
2023-09-14T20:48:52.124Z,71.50
2023-09-14T20:51:20.872Z,72.14
2023-09-14T20:53:49.586Z,71.55
2023-09-14T20:56:19.963Z,71.21
2023-09-14T20:58:49.027Z,71.44
2023-09-14T21:01:18.190Z,71.76
2023-09-14T21:03:47.251Z,71.30
2023-09-14T21:06:16.150Z,71.42
2023-09-14T21:08:44.953Z,71.54
2023-09-14T21:11:13.915Z,71.31
2023-09-14T21:13:44.171Z,70.82
2023-09-14T21:16:13.242Z,71.43
2023-09-14T21:18:42.131Z,71.20
2023-09-14T21:21:11.045Z,71.28
2023-09-14T21:23:40.582Z,70.85
2023-09-14T21:26:10.084Z,70.67
2023-09-14T21:28:41.011Z,71.29
2023-09-14T21:31:11.292Z,71.25
2023-09-14T21:33:40.138Z,71.40
2023-09-14T21:36:09.387Z,71.17
2023-09-14T21:38:38.100Z,70.98
2023-09-14T21:41:08.015Z,70.39
2023-09-14T21:43:38.708Z,70.90
2023-09-14T21:46:10.488Z,71.02
2023-09-14T21:48:39.551Z,70.76
2023-09-14T21:51:08.524Z,71.00
2023-09-14T21:53:37.239Z,70.63
2023-09-14T21:56:06.283Z,70.25
2023-09-14T21:58:35.064Z,70.32
2023-09-14T22:01:04.246Z,70.64
2023-09-14T22:03:48.810Z,70.35
2023-09-14T22:06:24.745Z,70.61
2023-09-14T22:08:55.075Z,70.28
2023-09-14T22:11:23.904Z,70.43
2023-09-14T22:13:52.628Z,71.04
2023-09-14T22:16:21.642Z,70.98
2023-09-14T22:18:52.574Z,70.80
2023-09-14T22:21:24.133Z,71.00
2023-09-14T22:23:53.036Z,71.18
2023-09-14T22:26:21.815Z,71.34
2023-09-14T22:28:50.608Z,71.13
2023-09-14T22:31:20.768Z,70.76
2023-09-14T22:33:52.086Z,70.63
2023-09-14T22:36:21.146Z,70.63
2023-09-14T22:38:49.991Z,71.21
2023-09-14T22:41:18.881Z,71.12
2023-09-14T22:43:47.978Z,71.49
2023-09-14T22:46:17.651Z,71.42
2023-09-14T22:48:46.798Z,70.82
2023-09-14T22:51:18.360Z,70.49
2023-09-14T22:53:47.728Z,71.26
2023-09-14T22:56:17.354Z,70.94
2023-09-14T22:58:47.855Z,71.11
2023-09-14T23:01:16.989Z,71.36
2023-09-14T23:03:46.055Z,71.58
2023-09-14T23:06:17.004Z,71.31
2023-09-14T23:08:46.889Z,71.26
2023-09-14T23:11:24.873Z,71.16
2023-09-14T23:13:54.325Z,71.61
2023-09-14T23:16:26.516Z,71.18
2023-09-14T23:18:56.253Z,71.35
2023-09-14T23:21:27.172Z,71.42
2023-09-14T23:23:56.799Z,71.38
2023-09-14T23:26:26.098Z,71.92
2023-09-14T23:28:55.938Z,71.60
2023-09-14T23:31:25.779Z,71.46
2023-09-14T23:33:54.551Z,71.86
2023-09-14T23:36:23.394Z,71.66
2023-09-14T23:38:53.729Z,72.39
2023-09-14T23:41:23.067Z,72.05
2023-09-14T23:43:51.918Z,72.01
2023-09-14T23:46:22.529Z,71.78
2023-09-14T23:48:52.722Z,72.00
2023-09-14T23:51:21.823Z,72.11
2023-09-14T23:53:50.930Z,72.14
2023-09-14T23:56:21.164Z,72.71
2023-09-14T23:58:49.970Z,72.33
